Time;durP1;ratioP1;P1;durP2;ratioP2;P2;SDS_P1;SDS_P2;PMS_P1;PMS_P2;Temp;Humidity;BMP_temperature;BMP_pressure;BME280_temperature;BME280_humidity;BME280_pressure;Samples;Min_cycle;Max_cycle;Signal;HPM_P1;HPM_P2
2021/12/03 00:01:03;;;;;;;9.53;4.73;;;3.20;99.90;;;;;;5055593;28;20029;-66
2021/12/03 00:03:29;;;;;;;9.88;4.18;;;3.20;99.90;;;;;;5055856;28;20359;-66
2021/12/03 00:05:56;;;;;;;9.70;4.72;;;3.10;99.90;;;;;;5055276;28;20108;-68
2021/12/03 00:08:24;;;;;;;9.25;4.28;;;3.00;99.90;;;;;;5055493;28;20031;-68
2021/12/03 00:10:55;;;;;;;9.70;4.55;;;3.00;99.90;;;;;;5055498;28;20028;-67
2021/12/03 00:13:21;;;;;;;9.48;4.28;;;2.90;99.90;;;;;;5037445;28;20031;-67
2021/12/03 00:15:47;;;;;;;13.07;5.47;;;2.90;99.90;;;;;;5037412;28;20117;-66
2021/12/03 00:18:13;;;;;;;10.52;4.70;;;2.90;99.90;;;;;;5055489;28;20113;-68
2021/12/03 00:20:39;;;;;;;10.23;4.53;;;2.90;99.90;;;;;;5055482;28;20116;-67
2021/12/03 00:23:06;;;;;;;11.13;4.82;;;2.90;99.90;;;;;;5037219;28;20278;-68
2021/12/03 00:25:33;;;;;;;10.70;4.60;;;2.90;99.90;;;;;;5055419;28;20032;-68
2021/12/03 00:27:59;;;;;;;12.63;4.95;;;3.10;99.90;;;;;;5055364;28;20423;-66
2021/12/03 00:30:26;;;;;;;6.50;3.55;;;3.10;99.90;;;;;;5037466;28;20021;-66
2021/12/03 00:32:52;;;;;;;;;;;3.20;99.90;;;;;;5055801;28;20045;-67
2021/12/03 00:35:18;;;;;;;8.32;4.25;;;3.10;99.90;;;;;;5055500;28;19905;-67
2021/12/03 00:37:46;;;;;;;10.65;4.55;;;3.10;99.90;;;;;;5055739;28;20025;-68
2021/12/03 00:40:18;;;;;;;8.02;4.47;;;3.20;99.90;;;;;;5055849;28;20094;-67
2021/12/03 00:42:44;;;;;;;8.38;4.75;;;3.10;99.90;;;;;;5054778;28;20032;-67
2021/12/03 00:45:11;;;;;;;8.90;4.30;;;3.00;99.90;;;;;;5055826;28;20371;-67
2021/12/03 00:47:38;;;;;;;9.45;4.85;;;3.00;99.90;;;;;;5037241;28;20059;-66
2021/12/03 00:50:06;;;;;;;8.95;4.88;;;3.00;99.90;;;;;;5055708;28;20052;-67
2021/12/03 00:52:31;;;;;;;8.50;4.28;;;2.90;99.90;;;;;;5054886;28;20022;-67
2021/12/03 00:54:57;;;;;;;11.10;5.57;;;3.10;99.90;;;;;;5036632;28;20481;-68
2021/12/03 00:57:23;;;;;;;8.37;4.60;;;3.00;99.90;;;;;;5037135;28;20121;-67
2021/12/03 00:59:48;;;;;;;9.43;4.67;;;3.00;99.90;;;;;;5036461;28;20036;-66
2021/12/03 01:02:14;;;;;;;8.40;4.07;;;3.10;99.90;;;;;;5036502;28;20032;-67
2021/12/03 01:04:40;;;;;;;9.37;4.80;;;3.00;99.90;;;;;;5054183;28;20025;-66
2021/12/03 01:07:06;;;;;;;9.15;4.07;;;3.00;99.90;;;;;;5054352;28;20107;-66
2021/12/03 01:09:32;;;;;;;12.18;4.22;;;3.10;99.90;;;;;;5054447;28;20450;-66
2021/12/03 01:11:59;;;;;;;12.30;5.65;;;3.00;99.90;;;;;;5054262;28;20428;-67
2021/12/03 01:14:25;;;;;;;6.75;4.05;;;2.80;99.90;;;;;;5054263;28;20060;-67
2021/12/03 01:16:51;;;;;;;7.85;4.53;;;2.80;99.90;;;;;;5054102;28;20017;-67
2021/12/03 01:19:17;;;;;;;10.35;5.35;;;2.70;99.90;;;;;;5054093;28;20504;-68
2021/12/03 01:21:42;;;;;;;14.45;5.78;;;2.70;99.90;;;;;;5053904;28;20107;-68
2021/12/03 01:24:08;;;;;;;11.10;4.93;;;2.60;99.90;;;;;;5053782;28;20075;-66
2021/12/03 01:26:35;;;;;;;9.00;4.20;;;2.70;99.90;;;;;;5054802;28;20525;-68
2021/12/03 01:29:03;;;;;;;9.57;5.47;;;2.90;99.90;;;;;;5037179;28;20090;-67
2021/12/03 01:31:29;;;;;;;7.43;4.30;;;2.90;99.90;;;;;;5054068;28;20386;-67
2021/12/03 01:33:54;;;;;;;9.50;4.80;;;2.90;99.90;;;;;;5053867;28;20028;-67
2021/12/03 01:36:20;;;;;;;7.93;4.50;;;2.90;99.90;;;;;;5053980;28;20021;-67
2021/12/03 01:38:46;;;;;;;9.40;4.90;;;2.80;99.90;;;;;;5055203;28;20033;-67
2021/12/03 01:41:12;;;;;;;13.17;5.70;;;2.80;99.90;;;;;;5053927;28;20044;-67
2021/12/03 01:43:39;;;;;;;10.05;4.90;;;3.00;99.90;;;;;;5053574;28;20062;-67
2021/12/03 01:46:10;;;;;;;13.20;6.40;;;2.80;99.90;;;;;;5053308;28;20456;-67
2021/12/03 01:48:37;;;;;;;11.35;5.90;;;2.70;99.90;;;;;;5053715;28;20013;-67
2021/12/03 01:51:05;;;;;;;10.77;5.28;;;2.70;99.90;;;;;;5053283;28;20389;-67
2021/12/03 01:53:33;;;;;;;9.63;5.35;;;2.70;99.90;;;;;;5053086;28;20021;-67
2021/12/03 01:56:03;;;;;;;17.08;7.18;;;2.60;99.90;;;;;;5035188;28;20070;-68
2021/12/03 01:58:28;;;;;;;10.35;4.82;;;2.60;99.90;;;;;;5053127;28;20029;-68
2021/12/03 02:00:58;;;;;;;11.17;5.73;;;2.50;99.90;;;;;;5053009;28;20526;-68
2021/12/03 02:03:29;;;;;;;17.13;6.35;;;2.40;99.90;;;;;;5053380;28;20272;-68
2021/12/03 02:05:56;;;;;;;17.20;6.78;;;2.30;99.90;;;;;;5053396;28;20048;-67
2021/12/03 02:08:22;;;;;;;12.75;6.75;;;2.30;99.90;;;;;;5053177;28;20480;-68
2021/12/03 02:10:48;;;;;;;20.08;8.23;;;2.30;99.90;;;;;;5052913;28;20025;-68
2021/12/03 02:13:14;;;;;;;14.65;7.57;;;2.30;99.90;;;;;;5052887;28;20366;-68
2021/12/03 02:15:42;;;;;;;14.05;6.20;;;2.20;99.90;;;;;;5052887;28;20021;-68
2021/12/03 02:18:09;;;;;;;11.27;5.82;;;2.20;99.90;;;;;;5035023;28;20025;-67
2021/12/03 02:20:40;;;;;;;14.18;6.70;;;2.20;99.90;;;;;;5052929;28;20032;-67
2021/12/03 02:23:07;;;;;;;10.27;5.57;;;2.20;99.90;;;;;;5052817;28;20035;-67
2021/12/03 02:25:33;;;;;;;14.45;6.43;;;2.20;99.90;;;;;;5052624;28;20029;-67
2021/12/03 02:27:59;;;;;;;12.40;6.60;;;2.20;99.90;;;;;;5052865;28;20061;-67
2021/12/03 02:30:25;;;;;;;17.97;8.93;;;2.20;99.90;;;;;;5034534;28;20021;-67
2021/12/03 02:32:52;;;;;;;14.73;7.22;;;2.10;99.90;;;;;;5052855;28;20094;-67
2021/12/03 02:35:21;;;;;;;12.77;6.70;;;2.00;99.90;;;;;;5052615;28;20370;-67
2021/12/03 02:37:47;;;;;;;10.38;5.60;;;2.00;99.90;;;;;;5053057;28;20367;-67
2021/12/03 02:40:14;;;;;;;;;;;1.90;99.90;;;;;;5053133;28;20017;-67
2021/12/03 02:42:40;;;;;;;11.63;6.32;;;1.90;99.90;;;;;;5052907;28;20308;-68
2021/12/03 02:45:07;;;;;;;11.05;6.25;;;1.80;99.90;;;;;;5052417;28;20065;-68
2021/12/03 02:47:34;;;;;;;16.65;6.57;;;1.80;99.90;;;;;;5034422;28;20025;-67
2021/12/03 02:49:59;;;;;;;13.32;6.20;;;1.70;99.90;;;;;;5034578;28;20362;-68
2021/12/03 02:52:25;;;;;;;13.63;6.87;;;1.70;99.90;;;;;;5034696;28;20028;-68
2021/12/03 02:54:51;;;;;;;14.93;6.97;;;1.60;99.90;;;;;;5052472;28;20430;-67
2021/12/03 02:57:16;;;;;;;14.57;6.87;;;1.60;99.90;;;;;;5052958;28;20429;-67
2021/12/03 02:59:42;;;;;;;12.33;6.53;;;1.50;99.90;;;;;;5053028;28;20118;-67
2021/12/03 03:02:08;;;;;;;12.43;7.00;;;1.50;99.90;;;;;;5052624;28;20024;-67
2021/12/03 03:04:33;;;;;;;16.98;6.88;;;1.50;99.90;;;;;;5035004;28;20060;-66
2021/12/03 03:07:00;;;;;;;13.60;6.63;;;1.40;99.90;;;;;;5055511;28;20037;-67
2021/12/03 03:09:26;;;;;;;14.70;7.60;;;1.40;99.90;;;;;;5056094;28;20100;-67
2021/12/03 03:11:52;;;;;;;14.27;7.05;;;1.30;99.90;;;;;;5056006;28;20386;-66
2021/12/03 03:14:18;;;;;;;18.02;8.38;;;1.30;99.90;;;;;;5055959;28;20032;-67
2021/12/03 03:16:44;;;;;;;14.93;7.88;;;1.30;99.90;;;;;;5055990;28;20067;-67
2021/12/03 03:19:17;;;;;;;14.93;7.68;;;1.30;99.90;;;;;;5038059;28;20052;-67
2021/12/03 03:21:43;;;;;;;15.93;8.13;;;1.20;99.90;;;;;;5056161;28;20029;-67
2021/12/03 03:24:10;;;;;;;18.90;8.02;;;1.20;99.90;;;;;;5056426;28;20025;-67
2021/12/03 03:26:40;;;;;;;14.10;7.57;;;1.20;99.90;;;;;;5056052;28;20021;-67
2021/12/03 03:29:09;;;;;;;16.52;7.57;;;1.20;99.90;;;;;;5055955;28;20056;-67
2021/12/03 03:31:38;;;;;;;14.70;7.80;;;1.10;99.90;;;;;;5055700;28;20098;-67
2021/12/03 03:34:05;;;;;;;18.35;9.15;;;1.20;99.90;;;;;;5055723;28;20048;-67
2021/12/03 03:36:36;;;;;;;16.77;7.95;;;1.10;99.90;;;;;;5055797;28;20541;-67
2021/12/03 03:39:05;;;;;;;19.15;8.90;;;1.10;99.90;;;;;;5037794;28;20401;-67
2021/12/03 03:41:30;;;;;;;16.52;9.00;;;1.10;99.90;;;;;;5037712;28;20033;-67
2021/12/03 03:43:56;;;;;;;20.47;8.90;;;1.10;99.90;;;;;;5055487;28;20027;-67
2021/12/03 03:46:22;;;;;;;19.67;9.17;;;1.10;99.90;;;;;;5055398;28;20021;-67
2021/12/03 03:48:48;;;;;;;19.35;8.35;;;1.10;99.90;;;;;;5055379;28;20049;-66
2021/12/03 03:51:13;;;;;;;17.23;8.13;;;1.10;99.90;;;;;;5055562;28;20500;-66
2021/12/03 03:53:41;;;;;;;18.73;8.20;;;1.00;99.90;;;;;;5055616;28;20108;-66
2021/12/03 03:56:07;;;;;;;18.50;7.78;;;1.00;99.90;;;;;;5055487;28;20040;-66
2021/12/03 03:58:33;;;;;;;22.55;10.65;;;1.00;99.90;;;;;;5037977;28;20086;-66
2021/12/03 04:00:59;;;;;;;16.35;8.13;;;1.00;99.90;;;;;;5055161;28;20033;-66
2021/12/03 04:03:25;;;;;;;18.73;8.27;;;0.90;99.90;;;;;;5055205;28;20025;-66
2021/12/03 04:05:51;;;;;;;17.05;8.80;;;0.90;99.90;;;;;;5037150;28;20033;-65
2021/12/03 04:08:16;;;;;;;18.73;9.40;;;0.90;99.90;;;;;;5037246;28;20033;-66
2021/12/03 04:10:42;;;;;;;20.87;9.30;;;0.90;99.90;;;;;;5055276;28;20256;-66
2021/12/03 04:13:08;;;;;;;19.93;9.23;;;1.00;99.90;;;;;;5055554;28;20147;-66
2021/12/03 04:15:34;;;;;;;17.93;8.50;;;1.20;99.90;;;;;;5055572;28;20033;-66
2021/12/03 04:17:59;;;;;;;17.02;8.65;;;1.20;99.90;;;;;;5055517;28;20020;-67
2021/12/03 04:20:25;;;;;;;16.00;8.57;;;1.10;99.90;;;;;;5054931;28;20087;-66
2021/12/03 04:22:52;;;;;;;16.02;8.27;;;1.20;99.90;;;;;;5036853;28;20386;-67
2021/12/03 04:25:20;;;;;;;20.17;9.40;;;1.30;99.90;;;;;;5054838;28;20075;-67
2021/12/03 04:27:47;;;;;;;18.02;9.30;;;1.30;99.90;;;;;;5054793;28;20045;-67
2021/12/03 04:30:24;;;;;;;17.17;9.52;;;1.40;99.90;;;;;;5054933;28;20120;-67
2021/12/03 04:32:52;;;;;;;20.42;9.40;;;1.40;99.90;;;;;;5036877;28;20039;-66
2021/12/03 04:35:18;;;;;;;20.60;9.25;;;1.40;99.90;;;;;;5054765;28;20052;-66
2021/12/03 04:37:44;;;;;;;15.20;8.32;;;1.50;99.90;;;;;;5054678;28;20033;-67
2021/12/03 04:40:12;;;;;;;19.63;8.07;;;1.40;99.90;;;;;;5055138;28;20095;-66
2021/12/03 04:42:38;;;;;;;18.58;9.30;;;1.40;99.90;;;;;;5056338;28;20394;-65
2021/12/03 04:45:08;;;;;;;20.23;9.07;;;1.40;99.90;;;;;;5056926;28;20025;-66
2021/12/03 04:47:34;;;;;;;17.02;8.77;;;1.30;99.90;;;;;;5037077;28;20119;-66
2021/12/03 04:49:59;;;;;;;16.58;8.25;;;1.20;99.90;;;;;;5054433;28;20499;-66
2021/12/03 04:52:25;;;;;;;19.23;8.82;;;1.20;99.90;;;;;;5036393;28;20033;-66
2021/12/03 04:54:52;;;;;;;20.08;9.02;;;1.20;99.90;;;;;;5054357;28;20101;-66
2021/12/03 04:57:18;;;;;;;17.95;7.97;;;1.20;99.90;;;;;;5054266;28;20029;-65
2021/12/03 04:59:43;;;;;;;18.87;8.43;;;1.30;99.90;;;;;;5054568;28;20029;-66
2021/12/03 05:02:10;;;;;;;21.60;10.07;;;1.30;99.90;;;;;;5054139;28;20033;-66
2021/12/03 05:04:37;;;;;;;17.58;8.63;;;1.30;99.90;;;;;;5054255;28;20032;-66
2021/12/03 05:09:31;;;;;;;19.10;8.57;;;1.30;99.90;;;;;;5054389;28;20032;-68
2021/12/03 05:11:57;;;;;;;18.05;8.90;;;1.20;99.90;;;;;;5054222;28;20363;-67
2021/12/03 05:14:23;;;;;;;16.63;9.05;;;1.10;99.90;;;;;;5053857;28;20433;-66
2021/12/03 05:16:48;;;;;;;20.53;9.13;;;1.10;99.90;;;;;;5054419;28;20025;-70
2021/12/03 05:19:17;;;;;;;16.73;7.73;;;1.10;99.90;;;;;;5054241;28;20021;-68
2021/12/03 05:21:44;;;;;;;20.25;9.07;;;1.10;99.90;;;;;;5053767;28;20025;-65
2021/12/03 05:24:13;;;;;;;19.60;9.25;;;1.20;99.90;;;;;;5036029;28;20108;-69
2021/12/03 05:26:40;;;;;;;19.92;10.00;;;1.10;99.90;;;;;;5053838;28;20071;-70
2021/12/03 05:29:08;;;;;;;18.90;9.25;;;1.00;99.90;;;;;;5035857;28;20051;-66
2021/12/03 05:31:35;;;;;;;18.77;8.93;;;1.10;99.90;;;;;;5053992;28;20036;-66
2021/12/03 05:34:02;;;;;;;18.88;8.40;;;1.10;99.90;;;;;;5054271;28;20030;-66
2021/12/03 05:36:28;;;;;;;15.98;8.13;;;1.10;99.90;;;;;;5054017;28;20083;-66
2021/12/03 05:38:54;;;;;;;23.87;10.67;;;1.00;99.90;;;;;;5053892;28;20025;-66
2021/12/03 05:41:19;;;;;;;17.33;8.63;;;1.00;99.90;;;;;;5054053;28;20267;-66
2021/12/03 05:43:45;;;;;;;19.05;9.20;;;1.00;99.90;;;;;;5054002;28;20096;-66
2021/12/03 05:46:11;;;;;;;16.75;9.25;;;1.00;99.90;;;;;;5053811;28;20411;-66
2021/12/03 05:48:37;;;;;;;18.67;8.40;;;1.00;99.90;;;;;;5054243;28;20025;-70
2021/12/03 05:51:03;;;;;;;19.45;8.60;;;1.00;99.90;;;;;;5053171;28;20394;-68
2021/12/03 05:53:28;;;;;;;21.00;10.07;;;1.00;99.90;;;;;;5035373;28;20091;-66
2021/12/03 05:55:54;;;;;;;21.90;8.90;;;1.10;99.90;;;;;;5054150;28;20313;-67
2021/12/03 05:58:20;;;;;;;18.43;9.13;;;1.10;99.90;;;;;;5053516;28;20075;-66
2021/12/03 06:00:47;;;;;;;17.27;8.50;;;1.00;99.90;;;;;;5035332;28;20043;-66
2021/12/03 06:03:13;;;;;;;18.42;8.32;;;1.10;99.90;;;;;;5053668;28;20025;-67
2021/12/03 06:05:41;;;;;;;19.48;9.00;;;1.10;99.90;;;;;;5055345;28;20024;-67
2021/12/03 06:08:08;;;;;;;19.90;9.38;;;1.00;99.90;;;;;;5053680;28;20445;-65
2021/12/03 06:10:35;;;;;;;18.67;9.18;;;0.90;99.90;;;;;;5035352;28;20403;-66
2021/12/03 06:13:01;;;;;;;18.00;8.07;;;0.90;99.90;;;;;;5053369;28;20028;-66
2021/12/03 06:15:27;;;;;;;18.35;8.73;;;0.90;99.90;;;;;;5035548;28;20452;-66
2021/12/03 06:17:53;;;;;;;17.25;9.15;;;0.90;99.90;;;;;;5053485;28;20036;-66
2021/12/03 06:20:19;;;;;;;16.13;8.52;;;0.90;99.90;;;;;;5053170;28;20029;-68
2021/12/03 06:22:46;;;;;;;16.70;7.97;;;0.80;99.90;;;;;;5035306;28;20029;-66
2021/12/03 06:25:13;;;;;;;19.15;8.48;;;0.80;99.90;;;;;;5052737;28;20108;-67
2021/12/03 06:27:39;;;;;;;17.48;8.63;;;0.90;99.90;;;;;;5052515;28;20082;-65
2021/12/03 06:30:07;;;;;;;;;;;0.90;99.90;;;;;;5035021;28;20032;-65
2021/12/03 06:32:34;;;;;;;16.25;7.22;;;0.90;99.90;;;;;;5052719;28;19920;-66
2021/12/03 06:35:00;;;;;;;16.67;7.63;;;1.00;99.90;;;;;;5053200;28;20025;-66
2021/12/03 06:37:25;;;;;;;16.17;7.63;;;1.00;99.90;;;;;;5052795;28;20025;-66
2021/12/03 06:39:51;;;;;;;27.10;8.77;;;1.00;99.90;;;;;;5052391;28;20032;-66
2021/12/03 06:42:16;;;;;;;18.10;8.57;;;1.00;99.90;;;;;;5056794;28;20036;-66
2021/12/03 06:44:42;;;;;;;15.67;8.77;;;0.90;99.90;;;;;;5057639;28;20091;-66
2021/12/03 06:47:08;;;;;;;14.60;7.40;;;0.90;99.90;;;;;;5058147;28;20025;-66
2021/12/03 06:49:34;;;;;;;16.38;8.52;;;0.90;99.90;;;;;;5057711;28;20449;-66
2021/12/03 06:52:04;;;;;;;12.75;7.35;;;0.90;99.90;;;;;;5057101;28;20029;-66
2021/12/03 06:54:32;;;;;;;19.27;7.30;;;0.90;99.90;;;;;;5056863;28;20139;-66
2021/12/03 06:56:58;;;;;;;19.83;8.25;;;0.80;99.90;;;;;;5038637;28;20025;-66
2021/12/03 06:59:25;;;;;;;16.02;7.85;;;0.80;99.90;;;;;;5038612;28;20052;-66
2021/12/03 07:01:52;;;;;;;21.23;8.40;;;0.80;99.90;;;;;;5056611;28;20079;-66
2021/12/03 07:04:20;;;;;;;22.25;10.57;;;0.90;99.90;;;;;;5056537;28;20021;-66
2021/12/03 07:06:46;;;;;;;21.40;10.25;;;0.90;99.90;;;;;;5056394;28;20029;-66
2021/12/03 07:09:12;;;;;;;16.10;8.30;;;0.90;99.90;;;;;;5056738;28;20095;-66
2021/12/03 07:11:37;;;;;;;13.02;7.35;;;0.90;99.90;;;;;;5056411;28;20029;-65
2021/12/03 07:14:04;;;;;;;15.50;8.30;;;0.90;99.90;;;;;;5056379;28;20554;-66
2021/12/03 07:16:30;;;;;;;16.50;8.20;;;1.10;99.90;;;;;;5056047;28;20366;-66
2021/12/03 07:18:57;;;;;;;12.90;7.30;;;1.10;99.90;;;;;;5056542;28;20021;-66
2021/12/03 07:21:23;;;;;;;18.35;8.32;;;1.20;99.90;;;;;;5056159;28;20025;-66
2021/12/03 07:23:50;;;;;;;13.80;8.03;;;1.20;99.90;;;;;;5056241;28;20112;-66
2021/12/03 07:26:20;;;;;;;13.93;7.30;;;1.20;99.90;;;;;;5038213;28;20409;-66
2021/12/03 07:28:46;;;;;;;14.93;8.20;;;1.30;99.90;;;;;;5056202;28;20082;-66
2021/12/03 07:31:12;;;;;;;17.02;7.32;;;1.40;99.90;;;;;;5038417;28;20120;-65
2021/12/03 07:33:39;;;;;;;14.35;6.72;;;1.40;99.90;;;;;;5038386;28;20355;-65
2021/12/03 07:36:05;;;;;;;16.08;6.88;;;1.50;99.90;;;;;;5038141;28;20079;-65
2021/12/03 07:38:32;;;;;;;11.45;6.18;;;1.50;99.90;;;;;;5056082;28;20024;-64
2021/12/03 07:40:57;;;;;;;12.50;6.47;;;1.60;99.90;;;;;;5055890;28;20029;-64
2021/12/03 07:43:23;;;;;;;13.53;5.10;;;1.70;99.90;;;;;;5056643;28;20462;-66
2021/12/03 07:45:49;;;;;;;12.00;6.87;;;1.70;99.90;;;;;;5056820;28;20035;-65
2021/12/03 07:48:16;;;;;;;11.63;5.90;;;1.80;99.90;;;;;;5038284;28;20021;-65
2021/12/03 07:50:42;;;;;;;;;;;1.90;99.90;;;;;;5056149;28;20021;-66
2021/12/03 07:53:13;;;;;;;11.02;5.78;;;1.90;99.90;;;;;;5055612;28;20308;-66
2021/12/03 07:55:38;;;;;;;14.23;6.35;;;2.00;99.90;;;;;;5055957;28;20024;-66
2021/12/03 07:58:04;;;;;;;10.03;5.13;;;2.00;99.90;;;;;;5056439;28;20025;-66
2021/12/03 08:00:30;;;;;;;9.07;4.90;;;2.10;99.90;;;;;;5056350;28;20021;-65
2021/12/03 08:02:56;;;;;;;12.80;5.07;;;2.20;99.90;;;;;;5056422;28;20021;-65
2021/12/03 08:05:21;;;;;;;8.97;4.47;;;2.30;99.90;;;;;;5056970;28;20071;-64
2021/12/03 08:07:49;;;;;;;7.13;4.33;;;2.30;99.90;;;;;;5056300;28;20060;-65
2021/12/03 08:10:15;;;;;;;11.07;4.45;;;2.40;99.90;;;;;;5056014;28;20466;-65
2021/12/03 08:12:42;;;;;;;;;;;2.40;99.90;;;;;;5056193;28;20021;-65
2021/12/03 08:15:08;;;;;;;9.70;3.78;;;2.50;99.90;;;;;;5055719;28;19966;-65
2021/12/03 08:17:34;;;;;;;8.50;4.63;;;2.50;99.90;;;;;;5055832;28;20017;-65
2021/12/03 08:20:00;;;;;;;12.45;4.47;;;2.60;99.90;;;;;;5055684;28;20036;-65
2021/12/03 08:22:26;;;;;;;15.73;7.55;;;2.60;99.90;;;;;;5037376;28;20029;-64
2021/12/03 08:24:52;;;;;;;9.93;4.50;;;2.70;99.90;;;;;;5055110;28;20036;-64
2021/12/03 08:27:18;;;;;;;8.23;3.80;;;2.80;99.90;;;;;;5055447;28;20029;-66
2021/12/03 08:29:43;;;;;;;8.55;4.30;;;3.00;99.90;;;;;;5055496;28;20446;-67
2021/12/03 08:32:10;;;;;;;7.07;3.90;;;3.30;99.90;;;;;;5055137;28;20401;-68
2021/12/03 08:34:36;;;;;;;8.77;4.25;;;3.30;99.90;;;;;;5037370;28;20017;-71
2021/12/03 08:37:03;;;;;;;8.40;4.45;;;3.20;99.90;;;;;;5037603;28;20029;-66
2021/12/03 08:39:30;;;;;;;7.85;4.15;;;3.20;99.90;;;;;;5037073;28;20489;-67
2021/12/03 08:41:59;;;;;;;8.35;3.85;;;3.30;99.90;;;;;;5037036;28;20028;-67
2021/12/03 08:44:26;;;;;;;10.13;4.18;;;3.30;99.90;;;;;;5054690;28;20027;-69
2021/12/03 08:46:58;;;;;;;;;;;3.30;99.90;;;;;;5055140;28;20025;-69
2021/12/03 08:49:29;;;;;;;9.20;4.18;;;3.30;99.90;;;;;;5054917;28;19904;-65
2021/12/03 08:57:12;;;;;;;7.32;4.20;;;3.30;99.90;;;;;;5055161;28;20036;-65
2021/12/03 08:59:38;;;;;;;12.32;5.68;;;3.40;99.90;;;;;;5055108;28;20028;-66
2021/12/03 09:02:05;;;;;;;10.02;5.05;;;3.40;99.90;;;;;;5037687;28;20470;-65
2021/12/03 09:04:30;;;;;;;12.65;5.07;;;3.30;99.90;;;;;;5053994;28;20131;-65
2021/12/03 09:06:57;;;;;;;8.60;5.18;;;3.40;99.90;;;;;;5054588;28;20104;-65
2021/12/03 09:09:24;;;;;;;8.25;4.93;;;3.50;99.90;;;;;;5054839;28;20500;-66
2021/12/03 09:11:50;;;;;;;10.40;5.40;;;3.60;99.90;;;;;;5054852;28;20025;-68
2021/12/03 09:15:19;;;;;;;10.80;5.55;;;3.70;99.90;;;;;;5055074;28;20115;-69
2021/12/03 09:20:28;;;;;;;11.73;5.15;;;4.00;99.90;;;;;;5054035;28;20028;-66
2021/12/03 09:22:48;;;;;;;6.60;4.75;;;4.10;99.90;;;;;;5043241;28;20037;-66
2021/12/03 09:25:18;;;;;;;8.60;5.07;;;4.10;99.90;;;;;;5054348;28;20017;-66
2021/12/03 09:27:45;;;;;;;8.43;4.65;;;4.10;99.90;;;;;;5054217;28;20017;-71
2021/12/03 09:30:14;;;;;;;10.65;5.57;;;4.10;99.90;;;;;;5053973;28;20421;-66
2021/12/03 09:32:42;;;;;;;11.85;5.03;;;4.10;99.90;;;;;;5054200;28;20037;-66
2021/12/03 09:35:09;;;;;;;9.38;4.85;;;4.20;99.90;;;;;;5036022;28;20397;-66
2021/12/03 09:37:35;;;;;;;7.85;4.72;;;4.10;99.90;;;;;;5054052;28;20021;-66
2021/12/03 09:40:06;;;;;;;7.63;4.80;;;4.20;99.90;;;;;;5054028;28;20028;-66
2021/12/03 09:42:37;;;;;;;10.68;5.10;;;4.20;99.90;;;;;;5053739;28;20082;-66
2021/12/03 09:45:05;;;;;;;11.23;4.85;;;4.20;99.90;;;;;;5053958;28;20028;-66
2021/12/03 09:47:31;;;;;;;19.92;5.30;;;4.30;99.90;;;;;;5053871;28;20103;-67
2021/12/03 09:49:58;;;;;;;10.63;5.07;;;4.60;99.90;;;;;;5054198;28;20107;-67
2021/12/03 09:55:03;;;;;;;9.45;5.63;;;4.80;99.90;;;;;;5054620;28;20120;-67
2021/12/03 09:57:39;;;;;;;8.40;5.05;;;4.80;99.90;;;;;;5054396;28;20059;-67
2021/12/03 10:00:34;;;;;;;12.10;5.68;;;4.80;99.90;;;;;;5054258;28;20036;-67
2021/12/03 10:27:58;;;;;;;8.97;4.90;;;6.00;99.90;;;;;;5053386;28;20048;-66
2021/12/03 10:36:19;;;;;;;10.63;5.43;;;6.60;99.90;;;;;;5053273;28;20021;-66
2021/12/03 10:57:13;;;;;;;7.45;3.15;;;5.80;99.90;;;;;;5053474;28;20037;-66
2021/12/03 11:35:55;;;;;;;6.75;3.30;;;5.10;99.90;;;;;;5056467;28;20032;-67
2021/12/03 11:38:51;;;;;;;8.85;3.45;;;5.00;99.90;;;;;;5055526;28;20436;-67
2021/12/03 11:56:10;;;;;;;10.15;4.35;;;4.90;99.90;;;;;;5055462;28;20378;-67
2021/12/03 13:21:28;;;;;;;8.13;3.70;;;4.60;99.90;;;;;;5054417;28;20087;-66
2021/12/03 14:00:44;;;;;;;7.85;3.63;;;4.70;99.90;;;;;;5053897;28;20028;-68
2021/12/03 14:39:07;;;;;;;18.27;6.60;;;4.60;99.90;;;;;;5053840;28;20450;-65
2021/12/03 14:57:33;;;;;;;6.20;3.78;;;4.30;99.90;;;;;;5053070;28;20039;-65
2021/12/03 15:21:44;;;;;;;5.78;2.85;;;4.20;99.90;;;;;;5056384;28;20021;-66
2021/12/03 15:30:04;;;;;;;4.78;2.95;;;4.20;99.90;;;;;;5055887;28;20054;-65
2021/12/03 16:04:37;;;;;;;6.63;3.13;;;4.10;99.90;;;;;;5055604;28;20108;-64
2021/12/03 16:12:55;;;;;;;6.57;2.85;;;4.10;99.90;;;;;;5054776;28;20474;-64
2021/12/03 16:18:28;;;;;;;5.43;2.77;;;4.20;99.90;;;;;;5055513;28;20470;-65
2021/12/03 16:26:06;;;;;;;4.80;2.50;;;4.20;99.90;;;;;;5055500;28;20482;-65
2021/12/03 16:45:28;;;;;;;5.78;2.83;;;4.20;99.90;;;;;;5056483;28;20027;-65
2021/12/03 16:53:12;;;;;;;9.65;5.57;;;4.20;99.90;;;;;;5058579;28;20453;-65
2021/12/03 16:55:38;;;;;;;6.97;2.72;;;4.10;99.90;;;;;;5057899;28;20104;-65
2021/12/03 16:58:04;;;;;;;14.40;6.80;;;4.10;99.90;;;;;;5057300;28;20057;-64
2021/12/03 17:03:09;;;;;;;6.13;2.80;;;4.20;99.90;;;;;;5056154;28;20551;-64
2021/12/03 17:06:28;;;;;;;;;;;4.30;99.90;;;;;;5056324;28;20145;-63
2021/12/03 17:46:07;;;;;;;4.95;2.60;;;4.10;99.90;;;;;;5055422;28;20031;-63
2021/12/03 17:54:56;;;;;;;4.35;2.72;;;4.10;99.90;;;;;;5053759;28;20033;-64
2021/12/03 17:56:52;;;;;;;5.57;2.53;;;4.10;99.90;;;;;;5047790;28;20113;-63
2021/12/03 18:07:54;;;;;;;7.80;3.65;;;4.20;99.90;;;;;;5053906;28;20117;-66
2021/12/03 18:19:08;;;;;;;6.90;2.75;;;4.20;99.90;;;;;;5053550;28;20055;-64
2021/12/03 18:51:31;;;;;;;5.28;2.58;;;4.30;99.90;;;;;;5001867;28;20029;-64
2021/12/03 18:56:45;;;;;;;5.53;2.60;;;4.30;99.90;;;;;;5057436;28;20035;-64
2021/12/03 18:59:11;;;;;;;6.13;2.58;;;4.30;99.90;;;;;;5056852;28;20025;-65
2021/12/03 19:01:37;;;;;;;7.27;2.63;;;4.20;99.90;;;;;;5057660;28;20504;-63
2021/12/03 19:09:26;;;;;;;4.90;2.50;;;4.30;99.90;;;;;;5058891;28;20029;-64
2021/12/03 19:14:25;;;;;;;6.13;2.15;;;4.30;99.90;;;;;;5057272;28;20644;-64
2021/12/03 19:16:51;;;;;;;4.10;2.33;;;4.30;99.90;;;;;;5056753;28;20075;-64
2021/12/03 19:19:17;;;;;;;3.80;2.08;;;4.40;99.90;;;;;;5056686;28;20029;-65
2021/12/03 19:21:45;;;;;;;3.25;2.10;;;4.40;99.90;;;;;;5056571;28;20036;-65
2021/12/03 19:24:13;;;;;;;6.32;2.35;;;4.40;99.90;;;;;;5056541;28;20112;-64
2021/12/03 19:26:44;;;;;;;4.93;2.00;;;4.40;99.90;;;;;;5056364;28;20101;-64
2021/12/03 19:29:19;;;;;;;6.88;2.40;;;4.40;99.90;;;;;;5056439;28;20444;-64
2021/12/03 19:31:47;;;;;;;4.70;2.15;;;4.40;99.90;;;;;;5078679;22;20098;-60
2021/12/03 19:34:13;;;;;;;3.55;2.00;;;4.40;99.90;;;;;;5038566;28;20028;-58
2021/12/03 19:36:42;;;;;;;3.70;2.17;;;4.40;99.90;;;;;;5056586;28;20036;-61
2021/12/03 19:39:09;;;;;;;6.35;2.40;;;4.40;99.90;;;;;;5056781;28;20025;-62
2021/12/03 19:41:45;;;;;;;3.95;2.10;;;4.40;99.90;;;;;;5039320;28;20032;-62
2021/12/03 19:44:14;;;;;;;4.05;2.35;;;4.40;99.90;;;;;;5057712;28;20032;-62
2021/12/03 19:46:44;;;;;;;4.88;2.35;;;4.30;99.90;;;;;;5055905;28;20021;-59
2021/12/03 19:51:45;;;;;;;6.15;2.17;;;4.40;99.90;;;;;;5056221;28;20424;-62
2021/12/03 19:54:10;;;;;;;3.70;2.20;;;4.20;99.90;;;;;;5056093;28;20021;-61
2021/12/03 19:56:36;;;;;;;4.90;2.53;;;4.20;99.90;;;;;;5056613;28;20470;-62
2021/12/03 19:59:03;;;;;;;7.43;2.28;;;4.30;99.90;;;;;;5055821;28;20389;-62
2021/12/03 20:01:32;;;;;;;6.28;2.65;;;4.40;99.90;;;;;;5055675;28;20094;-60
2021/12/03 20:03:58;;;;;;;4.13;1.95;;;4.30;99.90;;;;;;5055853;28;20096;-61
2021/12/03 20:06:24;;;;;;;5.60;1.70;;;4.30;99.90;;;;;;5055948;28;20048;-61
2021/12/03 20:08:53;;;;;;;3.58;1.67;;;4.40;99.90;;;;;;5056713;28;20505;-63
2021/12/03 20:11:24;;;;;;;4.25;2.05;;;4.30;99.90;;;;;;5056850;28;20039;-58
2021/12/03 20:13:51;;;;;;;3.75;1.73;;;4.50;99.90;;;;;;5056030;28;20056;-63
2021/12/03 20:18:53;;;;;;;3.63;1.90;;;4.40;99.90;;;;;;5055815;28;20017;-60
2021/12/03 20:21:21;;;;;;;5.05;2.28;;;4.40;99.90;;;;;;5040774;28;20021;-61
2021/12/03 20:24:06;;;;;;;4.68;1.95;;;4.40;99.90;;;;;;5040210;28;20048;-61
2021/12/03 20:26:36;;;;;;;3.25;1.80;;;4.40;99.90;;;;;;5055648;28;20050;-62
2021/12/03 20:29:13;;;;;;;3.78;1.65;;;4.60;99.90;;;;;;5055894;28;20021;-63
2021/12/03 20:31:43;;;;;;;10.23;4.30;;;4.60;99.90;;;;;;5042746;28;20486;-63
2021/12/03 20:37:37;;;;;;;3.78;1.92;;;4.60;99.90;;;;;;4955307;29;20064;-62
2021/12/03 20:40:05;;;;;;;4.05;1.83;;;4.80;99.90;;;;;;4955514;29;20035;-62
2021/12/03 21:09:14;;;;;;;4.07;1.50;;;4.80;99.90;;;;;;5055198;28;20120;-62
2021/12/03 21:11:50;;;;;;;3.80;1.50;;;4.80;99.90;;;;;;5037001;28;20025;-62
2021/12/03 21:14:19;;;;;;;3.53;1.65;;;4.80;99.90;;;;;;5055465;28;20408;-62
2021/12/03 21:22:04;;;;;;;6.25;2.25;;;4.80;99.90;;;;;;5054841;28;20029;-62
2021/12/03 21:24:34;;;;;;;2.88;1.42;;;4.90;99.90;;;;;;5055025;28;20024;-61
2021/12/03 21:27:06;;;;;;;3.50;1.63;;;5.00;99.90;;;;;;5054383;28;20029;-62
2021/12/03 21:32:04;;;;;;;1.73;1.13;;;5.00;99.60;;;;;;5054117;28;20036;-63
2021/12/03 21:40:13;;;;;;;2.70;1.50;;;4.90;99.50;;;;;;5054156;28;20036;-61
2021/12/03 21:42:39;;;;;;;2.65;1.40;;;4.90;99.10;;;;;;5054182;28;20032;-60
2021/12/03 21:45:05;;;;;;;2.80;1.30;;;5.00;99.50;;;;;;5054128;28;20025;-62
2021/12/03 21:47:31;;;;;;;3.08;1.33;;;5.10;99.10;;;;;;5054045;28;20751;-61